Time;durP1;ratioP1;P1;durP2;ratioP2;P2;SDS_P1;SDS_P2;PMS_P1;PMS_P2;Temp;Humidity;BMP_temperature;BMP_pressure;BME280_temperature;BME280_humidity;BME280_pressure;Samples;Min_cycle;Max_cycle;Signal;HPM_P1;HPM_P2
2022/04/14 00:00:53;;;;;;;13.50;8.37;;;;;;;;;;5051735;28;20219;-75
2022/04/14 00:03:23;;;;;;;11.37;8.37;;;;;;;;;;5053073;28;20553;-74
2022/04/14 00:05:52;;;;;;;10.27;7.80;;;;;;;;;;5053853;28;20214;-74
2022/04/14 00:08:20;;;;;;;9.13;8.10;;;;;;;;;;5053726;28;20642;-75
2022/04/14 00:10:48;;;;;;;10.13;7.80;;;;;;;;;;5053585;28;20280;-75
2022/04/14 00:13:17;;;;;;;11.87;8.23;;;;;;;;;;5053429;28;20203;-75
2022/04/14 00:15:45;;;;;;;11.57;7.97;;;;;;;;;;5052914;28;20704;-75
2022/04/14 00:18:14;;;;;;;9.37;7.80;;;;;;;;;;5053743;28;20300;-75
2022/04/14 00:20:44;;;;;;;8.67;7.70;;;;;;;;;;5053404;28;20223;-76
2022/04/14 00:23:12;;;;;;;11.17;7.80;;;;;;;;;;5053617;28;20251;-75
2022/04/14 00:25:41;;;;;;;9.53;8.33;;;;;;;;;;5053410;28;20215;-76
2022/04/14 00:28:09;;;;;;;12.00;8.17;;;;;;;;;;5052992;28;20235;-74
2022/04/14 00:30:38;;;;;;;10.27;8.17;;;;;;;;;;5052092;28;20195;-76
2022/04/14 00:33:07;;;;;;;10.17;8.50;;;;;;;;;;5052305;28;20199;-77
2022/04/14 00:35:35;;;;;;;10.27;8.40;;;;;;;;;;5053003;28;20188;-75
2022/04/14 00:38:05;;;;;;;9.60;7.87;;;;;;;;;;5053077;28;20276;-76
2022/04/14 00:40:34;;;;;;;9.20;7.43;;;;;;;;;;5052137;28;20218;-75
2022/04/14 00:43:02;;;;;;;10.47;8.83;;;;;;;;;;5036615;28;20196;-75
2022/04/14 00:45:31;;;;;;;7.63;6.07;;;;;;;;;;5032380;28;20864;-76
2022/04/14 00:48:00;;;;;;;8.23;6.10;;;;;;;;;;5032534;28;20227;-75
2022/04/14 00:50:28;;;;;;;7.87;7.03;;;;;;;;;;5032509;28;20234;-77
2022/04/14 00:52:57;;;;;;;9.33;7.33;;;;;;;;;;5032969;28;20214;-76
2022/04/14 00:55:27;;;;;;;6.87;6.07;;;;;;;;;;5037728;28;20202;-77
2022/04/14 00:57:56;;;;;;;7.37;6.50;;;;;;;;;;5049063;28;20819;-77
2022/04/14 01:00:24;;;;;;;9.00;6.90;;;;;;;;;;5052313;28;20219;-77
2022/04/14 01:02:53;;;;;;;7.17;6.47;;;;;;;;;;5052991;28;20194;-78
2022/04/14 01:05:22;;;;;;;8.90;7.00;;;;;;;;;;5052626;28;20210;-77
2022/04/14 01:07:51;;;;;;;9.93;7.10;;;;;;;;;;5052955;28;20230;-76
2022/04/14 01:10:19;;;;;;;8.50;6.47;;;;;;;;;;5051447;28;20205;-78
2022/04/14 01:12:49;;;;;;;8.03;6.50;;;;;;;;;;5055807;28;20202;-76
2022/04/14 01:15:18;;;;;;;9.10;7.07;;;;;;;;;;5056859;28;20290;-76
2022/04/14 01:17:46;;;;;;;9.53;7.30;;;;;;;;;;5056932;28;20292;-77
2022/04/14 01:20:15;;;;;;;9.77;7.07;;;;;;;;;;5056424;28;20219;-77
2022/04/14 01:22:47;;;;;;;9.23;6.73;;;;;;;;;;5056487;28;20662;-77
2022/04/14 01:25:17;;;;;;;7.20;6.50;;;;;;;;;;5056679;28;20689;-78
2022/04/14 01:27:45;;;;;;;10.20;6.60;;;;;;;;;;5056784;28;20231;-78
2022/04/14 01:30:14;;;;;;;9.17;6.20;;;;;;;;;;5055551;28;20191;-77
2022/04/14 01:32:42;;;;;;;7.03;6.00;;;;;;;;;;5055236;28;20601;-78
2022/04/14 01:35:11;;;;;;;6.80;6.10;;;;;;;;;;5056149;28;20215;-77
2022/04/14 01:37:39;;;;;;;6.63;5.50;;;;;;;;;;5055972;28;20238;-77
2022/04/14 01:40:09;;;;;;;7.77;5.53;;;;;;;;;;5055121;28;20222;-78
2022/04/14 01:42:38;;;;;;;5.70;5.10;;;;;;;;;;5056076;28;20611;-77
2022/04/14 01:45:09;;;;;;;5.60;5.10;;;;;;;;;;5056178;28;20209;-78
2022/04/14 01:47:41;;;;;;;6.20;5.57;;;;;;;;;;5056491;28;20303;-78
2022/04/14 01:50:12;;;;;;;6.53;5.03;;;;;;;;;;5056389;28;20191;-78
2022/04/14 01:52:41;;;;;;;6.43;5.17;;;;;;;;;;5056632;28;20211;-78
2022/04/14 01:55:10;;;;;;;5.57;4.97;;;;;;;;;;5056109;28;20678;-78
2022/04/14 01:57:40;;;;;;;6.93;4.50;;;;;;;;;;5056044;28;20573;-78
2022/04/14 02:00:10;;;;;;;6.13;4.50;;;;;;;;;;5054686;28;20657;-78
2022/04/14 02:02:40;;;;;;;4.83;4.33;;;;;;;;;;5055869;28;20214;-77
2022/04/14 02:05:09;;;;;;;5.83;4.50;;;;;;;;;;5055213;28;20183;-77
2022/04/14 02:07:38;;;;;;;5.73;4.50;;;;;;;;;;5055723;28;20583;-78
2022/04/14 02:10:06;;;;;;;5.63;4.47;;;;;;;;;;5055529;28;20195;-78
2022/04/14 02:12:35;;;;;;;6.67;4.23;;;;;;;;;;5056008;28;20203;-78
2022/04/14 02:15:13;;;;;;;5.13;4.20;;;;;;;;;;5041715;28;20204;-78
2022/04/14 02:17:42;;;;;;;5.13;4.63;;;;;;;;;;5043801;28;20222;-78
2022/04/14 02:20:11;;;;;;;4.90;3.80;;;;;;;;;;5055763;28;20207;-78
2022/04/14 02:22:40;;;;;;;5.97;4.30;;;;;;;;;;5055969;28;20217;-78
2022/04/14 02:25:09;;;;;;;6.53;4.53;;;;;;;;;;5055281;28;20206;-78
2022/04/14 02:27:37;;;;;;;4.40;4.00;;;;;;;;;;5049809;28;20224;-79
2022/04/14 02:30:06;;;;;;;4.23;3.83;;;;;;;;;;5035470;28;20200;-78
2022/04/14 02:32:36;;;;;;;6.00;4.23;;;;;;;;;;5036003;28;20200;-79
2022/04/14 02:35:05;;;;;;;4.80;4.40;;;;;;;;;;5035779;28;20211;-79
2022/04/14 02:37:33;;;;;;;5.23;3.43;;;;;;;;;;5042644;28;20268;-77
2022/04/14 02:40:01;;;;;;;5.70;3.70;;;;;;;;;;5055256;28;20219;-77
2022/04/14 02:42:30;;;;;;;4.70;3.80;;;;;;;;;;5055395;28;20211;-78
2022/04/14 02:44:58;;;;;;;4.37;3.87;;;;;;;;;;5054777;28;20280;-78
2022/04/14 02:47:27;;;;;;;4.30;3.90;;;;;;;;;;5054326;28;20873;-79
2022/04/14 02:49:57;;;;;;;5.50;4.10;;;;;;;;;;5054703;28;20211;-80
2022/04/14 02:52:25;;;;;;;4.73;4.30;;;;;;;;;;5054486;28;20249;-77
2022/04/14 02:54:54;;;;;;;5.53;4.40;;;;;;;;;;5054756;28;20218;-77
2022/04/14 02:57:25;;;;;;;4.97;4.30;;;;;;;;;;5053799;28;20226;-78
2022/04/14 02:59:54;;;;;;;3.90;3.37;;;;;;;;;;5054021;28;20202;-78
2022/04/14 03:02:22;;;;;;;4.73;3.97;;;;;;;;;;5055138;28;20214;-79
2022/04/14 03:04:51;;;;;;;4.77;3.97;;;;;;;;;;5054853;28;20214;-79
2022/04/14 03:07:21;;;;;;;4.60;4.07;;;;;;;;;;5055067;28;20276;-78
2022/04/14 03:09:49;;;;;;;4.60;3.80;;;;;;;;;;5050087;28;20247;-78
2022/04/14 03:12:18;;;;;;;4.70;4.17;;;;;;;;;;5034806;28;20200;-78
2022/04/14 03:14:47;;;;;;;5.40;4.90;;;;;;;;;;5044291;28;20219;-79
2022/04/14 03:17:16;;;;;;;5.07;4.20;;;;;;;;;;5052428;28;20216;-78
2022/04/14 03:19:44;;;;;;;4.50;4.07;;;;;;;;;;5045371;28;20196;-78
2022/04/14 03:22:13;;;;;;;5.27;4.33;;;;;;;;;;5045400;28;20223;-77
2022/04/14 03:24:44;;;;;;;6.53;5.80;;;;;;;;;;5053797;28;20207;-77
2022/04/14 03:27:12;;;;;;;7.13;5.70;;;;;;;;;;5052583;28;20220;-79
2022/04/14 03:29:41;;;;;;;6.47;5.87;;;;;;;;;;5045757;28;20234;-78
2022/04/14 03:32:10;;;;;;;6.67;5.83;;;;;;;;;;5045898;28;20245;-79
2022/04/14 03:34:54;;;;;;;6.93;5.60;;;;;;;;;;5054546;28;20191;-78
2022/04/14 03:37:22;;;;;;;5.97;5.37;;;;;;;;;;5050255;28;20224;-79
2022/04/14 03:39:52;;;;;;;5.83;5.23;;;;;;;;;;5053443;28;20682;-78
2022/04/14 03:42:21;;;;;;;5.70;4.50;;;;;;;;;;5054020;28;20208;-76
2022/04/14 03:44:49;;;;;;;5.17;4.67;;;;;;;;;;5054004;28;20207;-78
2022/04/14 03:47:18;;;;;;;5.43;4.83;;;;;;;;;;5053772;28;20218;-79
2022/04/14 03:49:46;;;;;;;6.70;4.93;;;;;;;;;;5053730;28;20568;-77
2022/04/14 03:52:15;;;;;;;5.03;4.50;;;;;;;;;;5054052;28;20249;-79
2022/04/14 03:54:43;;;;;;;6.43;4.87;;;;;;;;;;5052530;28;20207;-78
2022/04/14 03:57:13;;;;;;;5.87;5.07;;;;;;;;;;5052300;28;20215;-78
2022/04/14 03:59:42;;;;;;;5.20;4.70;;;;;;;;;;5053184;28;20203;-78
2022/04/14 04:02:10;;;;;;;6.87;4.47;;;;;;;;;;5053042;28;20226;-79
2022/04/14 04:04:41;;;;;;;4.63;4.23;;;;;;;;;;5052720;28;20203;-78
2022/04/14 04:07:10;;;;;;;5.13;4.20;;;;;;;;;;5046982;28;20227;-78
2022/04/14 04:09:39;;;;;;;5.87;4.37;;;;;;;;;;5052734;28;20237;-79
2022/04/14 04:12:08;;;;;;;4.87;4.47;;;;;;;;;;5052737;28;20245;-78
2022/04/14 04:14:38;;;;;;;4.53;4.13;;;;;;;;;;5052738;28;20206;-75
2022/04/14 04:17:06;;;;;;;5.13;3.77;;;;;;;;;;5045034;28;20219;-75
2022/04/14 04:19:38;;;;;;;5.27;4.47;;;;;;;;;;5048789;28;20590;-76
2022/04/14 04:22:06;;;;;;;4.83;4.07;;;;;;;;;;5053155;28;20576;-77
2022/04/14 04:24:35;;;;;;;5.57;4.30;;;;;;;;;;5046567;28;20261;-77
2022/04/14 04:27:03;;;;;;;5.47;4.40;;;;;;;;;;5050208;28;20227;-77
2022/04/14 04:29:32;;;;;;;6.63;4.90;;;;;;;;;;5046371;28;20218;-77
2022/04/14 04:32:02;;;;;;;5.20;4.70;;;;;;;;;;5050127;28;20599;-76
2022/04/14 04:34:30;;;;;;;5.23;4.83;;;;;;;;;;5053365;28;20241;-77
2022/04/14 04:36:59;;;;;;;6.10;5.20;;;;;;;;;;5053106;28;20281;-77
2022/04/14 04:39:28;;;;;;;6.60;5.37;;;;;;;;;;5053228;28;20211;-77
2022/04/14 04:41:56;;;;;;;6.73;5.00;;;;;;;;;;5044433;28;20219;-76
2022/04/14 04:44:24;;;;;;;5.37;4.80;;;;;;;;;;5052652;28;20203;-76
2022/04/14 04:46:53;;;;;;;5.40;4.90;;;;;;;;;;5052701;28;20238;-77
2022/04/14 04:49:22;;;;;;;4.87;4.30;;;;;;;;;;5051647;28;20202;-76
2022/04/14 04:51:51;;;;;;;6.30;5.13;;;;;;;;;;5049827;28;20195;-77
2022/04/14 04:54:19;;;;;;;4.90;4.27;;;;;;;;;;5054099;28;20253;-76
2022/04/14 04:56:48;;;;;;;5.90;4.33;;;;;;;;;;5052363;28;20305;-76
2022/04/14 04:59:16;;;;;;;5.60;4.97;;;;;;;;;;5048438;28;20207;-75
2022/04/14 05:01:45;;;;;;;7.53;4.97;;;;;;;;;;5045508;28;20226;-77
2022/04/14 05:04:13;;;;;;;6.17;5.00;;;;;;;;;;5050957;28;20215;-77
2022/04/14 05:06:43;;;;;;;6.20;5.07;;;;;;;;;;5052433;28;20227;-76
2022/04/14 05:09:12;;;;;;;5.77;5.27;;;;;;;;;;5046697;28;20203;-77
2022/04/14 05:11:40;;;;;;;7.60;5.47;;;;;;;;;;5049498;28;20856;-76
2022/04/14 05:14:09;;;;;;;6.70;5.60;;;;;;;;;;5032599;28;20214;-76
2022/04/14 05:16:38;;;;;;;6.37;5.23;;;;;;;;;;5034772;28;20717;-76
2022/04/14 05:19:06;;;;;;;6.47;5.87;;;;;;;;;;5044786;28;20269;-76
2022/04/14 05:21:35;;;;;;;8.37;6.30;;;;;;;;;;5051275;28;20677;-74
2022/04/14 05:24:08;;;;;;;7.83;6.50;;;;;;;;;;5039510;28;20196;-76
2022/04/14 05:26:39;;;;;;;10.50;6.73;;;;;;;;;;5050365;28;20245;-76
2022/04/14 05:29:10;;;;;;;7.80;5.97;;;;;;;;;;5052033;28;20211;-76
2022/04/14 05:31:38;;;;;;;7.83;6.30;;;;;;;;;;5051719;28;20264;-76
2022/04/14 05:34:07;;;;;;;8.27;6.73;;;;;;;;;;5050955;28;20662;-75
2022/04/14 05:36:35;;;;;;;6.90;6.20;;;;;;;;;;5051952;28;20211;-76
2022/04/14 05:39:04;;;;;;;8.37;7.20;;;;;;;;;;5036156;28;20216;-75
2022/04/14 05:41:34;;;;;;;7.63;6.77;;;;;;;;;;5050715;28;20195;-76
2022/04/14 05:44:02;;;;;;;9.47;7.50;;;;;;;;;;5033164;28;20537;-75
2022/04/14 05:46:31;;;;;;;7.90;6.93;;;;;;;;;;5051751;28;20563;-76
2022/04/14 05:48:59;;;;;;;8.03;7.23;;;;;;;;;;5052090;28;20656;-75
2022/04/14 05:51:28;;;;;;;10.83;7.57;;;;;;;;;;5052501;28;20191;-76
2022/04/14 05:53:56;;;;;;;11.10;7.90;;;;;;;;;;5052277;28;20207;-76
2022/04/14 05:56:25;;;;;;;8.13;7.33;;;;;;;;;;5039382;28;20738;-75
2022/04/14 05:58:55;;;;;;;9.13;7.30;;;;;;;;;;5048397;28;20615;-75
2022/04/14 06:01:25;;;;;;;9.27;7.40;;;;;;;;;;5037617;28;20214;-75
2022/04/14 06:03:53;;;;;;;7.87;6.87;;;;;;;;;;5036098;28;20255;-76
2022/04/14 06:06:22;;;;;;;8.33;6.57;;;;;;;;;;5036436;28;20211;-76
2022/04/14 06:08:50;;;;;;;6.80;6.03;;;;;;;;;;5038757;28;20265;-75
2022/04/14 06:11:19;;;;;;;8.33;6.13;;;;;;;;;;5056250;28;20250;-76
2022/04/14 06:13:48;;;;;;;6.97;6.23;;;;;;;;;;5056234;28;20195;-75
2022/04/14 06:16:17;;;;;;;7.83;6.63;;;;;;;;;;5055909;28;20211;-76
2022/04/14 06:18:48;;;;;;;7.73;5.97;;;;;;;;;;5055094;28;20203;-75
2022/04/14 06:21:16;;;;;;;7.00;6.30;;;;;;;;;;5055004;28;20260;-75
2022/04/14 06:23:46;;;;;;;9.13;7.53;;;;;;;;;;5055204;28;20269;-75
2022/04/14 06:26:15;;;;;;;11.73;8.27;;;;;;;;;;5054561;28;20211;-76
2022/04/14 06:28:46;;;;;;;11.50;9.00;;;;;;;;;;5055602;28;20200;-76
2022/04/14 06:31:15;;;;;;;8.47;7.53;;;;;;;;;;5054167;28;20571;-76
2022/04/14 06:33:45;;;;;;;7.10;6.40;;;;;;;;;;5055587;28;20566;-76
2022/04/14 06:36:13;;;;;;;7.70;6.20;;;;;;;;;;5055347;28;20199;-76
2022/04/14 06:38:42;;;;;;;7.30;5.30;;;;;;;;;;5038379;28;20220;-76
2022/04/14 06:41:10;;;;;;;7.40;5.73;;;;;;;;;;5047244;28;20202;-75
2022/04/14 06:43:39;;;;;;;6.07;5.20;;;;;;;;;;5035044;28;20235;-75
2022/04/14 06:46:07;;;;;;;6.30;5.67;;;;;;;;;;5035493;28;20262;-75
2022/04/14 06:48:38;;;;;;;6.20;5.60;;;;;;;;;;5034771;28;20263;-75
2022/04/14 06:51:08;;;;;;;8.50;5.77;;;;;;;;;;5047330;28;20258;-75
2022/04/14 06:53:37;;;;;;;7.10;5.83;;;;;;;;;;5054162;28;20206;-74
2022/04/14 06:56:06;;;;;;;6.50;5.60;;;;;;;;;;5037810;28;20203;-74
2022/04/14 06:58:36;;;;;;;7.50;5.73;;;;;;;;;;5047712;28;20226;-74
2022/04/14 07:01:05;;;;;;;8.47;6.67;;;;;;;;;;5048143;28;20211;-75
2022/04/14 07:03:34;;;;;;;10.70;7.70;;;;;;;;;;5060545;28;20590;-74
2022/04/14 07:06:02;;;;;;;10.63;7.40;;;;;;;;;;5055108;28;20206;-74
2022/04/14 07:08:33;;;;;;;10.37;8.30;;;;;;;;;;5073313;28;20226;-75
2022/04/14 07:11:01;;;;;;;9.60;8.57;;;;;;;;;;5052179;28;20295;-75
2022/04/14 07:13:32;;;;;;;10.70;8.80;;;;;;;;;;5051923;28;20234;-73
2022/04/14 07:16:01;;;;;;;13.37;9.47;;;;;;;;;;5054510;28;20200;-75
2022/04/14 07:18:29;;;;;;;13.80;10.20;;;;;;;;;;5047516;28;20215;-73
2022/04/14 07:20:58;;;;;;;11.23;9.33;;;;;;;;;;5044723;28;20206;-74
2022/04/14 07:23:27;;;;;;;12.70;10.87;;;;;;;;;;5054495;28;20226;-74
2022/04/14 07:25:57;;;;;;;15.00;11.30;;;;;;;;;;5054611;28;20626;-75
2022/04/14 07:28:26;;;;;;;14.47;11.77;;;;;;;;;;5049016;28;20311;-74
2022/04/14 07:30:56;;;;;;;16.90;12.83;;;;;;;;;;5050349;28;20199;-74
2022/04/14 07:33:24;;;;;;;16.80;12.80;;;;;;;;;;5054140;28;20548;-73
2022/04/14 07:35:53;;;;;;;14.53;12.40;;;;;;;;;;5048300;28;20571;-74
2022/04/14 07:38:21;;;;;;;16.07;13.30;;;;;;;;;;5054321;28;20231;-74
2022/04/14 07:40:50;;;;;;;15.73;13.40;;;;;;;;;;5053704;28;20214;-74
2022/04/14 07:43:21;;;;;;;18.63;14.60;;;;;;;;;;5053772;28;20554;-75
2022/04/14 07:45:49;;;;;;;19.37;13.77;;;;;;;;;;5053356;28;20221;-74
2022/04/14 07:48:21;;;;;;;19.80;14.53;;;;;;;;;;5053700;28;20227;-75
2022/04/14 07:50:56;;;;;;;19.43;14.70;;;;;;;;;;5053614;28;20199;-74
2022/04/14 07:53:26;;;;;;;19.27;15.60;;;;;;;;;;5048844;28;20195;-75
2022/04/14 07:55:55;;;;;;;20.43;15.63;;;;;;;;;;5050968;28;20602;-73
2022/04/14 07:58:25;;;;;;;22.00;15.67;;;;;;;;;;5047635;28;20219;-74
2022/04/14 08:00:55;;;;;;;20.97;15.37;;;;;;;;;;5048547;28;20195;-74
2022/04/14 08:03:24;;;;;;;18.70;15.27;;;;;;;;;;5052946;28;20219;-73
2022/04/14 08:06:01;;;;;;;24.27;16.07;;;;;;;;;;5053314;28;20265;-73
2022/04/14 08:08:31;;;;;;;19.27;16.03;;;;;;;;;;5035551;28;20235;-74
2022/04/14 08:11:03;;;;;;;20.83;16.40;;;;;;;;;;5043794;28;20231;-75
2022/04/14 08:13:36;;;;;;;18.20;14.80;;;;;;;;;;5050881;28;20195;-73
2022/04/14 08:16:06;;;;;;;21.17;16.13;;;;;;;;;;5044990;28;20199;-74
2022/04/14 08:18:36;;;;;;;20.87;15.87;;;;;;;;;;5047984;28;20277;-75
2022/04/14 08:21:04;;;;;;;20.60;16.30;;;;;;;;;;5042423;28;20215;-74
2022/04/14 08:23:39;;;;;;;18.23;14.07;;;;;;;;;;5042466;28;20645;-74
2022/04/14 08:26:12;;;;;;;19.03;15.33;;;;;;;;;;5037724;28;20214;-74
2022/04/14 08:29:02;;;;;;;21.93;17.63;;;;;;;;;;5047184;28;20249;-74
2022/04/14 08:31:32;;;;;;;18.40;15.07;;;;;;;;;;5043099;28;20210;-74
2022/04/14 08:34:02;;;;;;;19.20;15.77;;;;;;;;;;5052176;28;20561;-74
2022/04/14 08:36:31;;;;;;;21.07;16.30;;;;;;;;;;5053050;28;20249;-73
2022/04/14 08:38:59;;;;;;;19.20;15.77;;;;;;;;;;5048867;28;20203;-74
2022/04/14 08:41:32;;;;;;;22.13;16.90;;;;;;;;;;5051504;28;20209;-73
2022/04/14 08:44:02;;;;;;;26.70;19.37;;;;;;;;;;5052965;28;20227;-75
2022/04/14 08:46:32;;;;;;;21.37;16.80;;;;;;;;;;5052338;28;20573;-75
2022/04/14 08:49:01;;;;;;;22.57;16.80;;;;;;;;;;5052320;28;20199;-73
2022/04/14 08:51:33;;;;;;;24.23;17.60;;;;;;;;;;5051102;28;20203;-73
2022/04/14 08:54:06;;;;;;;24.40;17.67;;;;;;;;;;5052881;28;20194;-74
2022/04/14 08:56:36;;;;;;;25.10;18.60;;;;;;;;;;5049170;28;20210;-74
2022/04/14 08:59:05;;;;;;;23.33;18.00;;;;;;;;;;5048071;28;20199;-74
2022/04/14 09:01:36;;;;;;;24.40;19.90;;;;;;;;;;5048349;28;20199;-75
2022/04/14 09:04:06;;;;;;;24.73;17.97;;;;;;;;;;5051179;28;20222;-73
2022/04/14 09:06:34;;;;;;;25.10;18.73;;;;;;;;;;5052110;28;20215;-73
2022/04/14 09:09:04;;;;;;;20.03;15.93;;;;;;;;;;5052555;28;20252;-73
2022/04/14 09:11:32;;;;;;;18.67;15.20;;;;;;;;;;5040185;28;20210;-72
2022/04/14 09:14:01;;;;;;;24.93;18.43;;;;;;;;;;5044967;28;20206;-74
2022/04/14 09:16:31;;;;;;;23.53;18.07;;;;;;;;;;5051053;28;20218;-73
2022/04/14 09:19:03;;;;;;;21.60;18.33;;;;;;;;;;5042629;28;20209;-73
2022/04/14 09:21:32;;;;;;;24.20;17.43;;;;;;;;;;5047931;28;20207;-74
2022/04/14 09:24:01;;;;;;;22.43;16.70;;;;;;;;;;5042524;28;20203;-74
2022/04/14 09:26:30;;;;;;;23.93;16.97;;;;;;;;;;5051516;28;20253;-73
2022/04/14 09:29:06;;;;;;;19.97;16.33;;;;;;;;;;5050780;28;20203;-75
2022/04/14 09:31:47;;;;;;;26.70;18.70;;;;;;;;;;5051004;28;20257;-72
2022/04/14 09:34:19;;;;;;;25.90;19.77;;;;;;;;;;5054809;28;20265;-73
2022/04/14 09:37:05;;;;;;;24.10;19.50;;;;;;;;;;5053474;28;20223;-74
2022/04/14 09:39:50;;;;;;;28.53;20.13;;;;;;;;;;5055900;28;20221;-73
2022/04/14 09:42:18;;;;;;;23.90;19.10;;;;;;;;;;5056797;28;20280;-74
2022/04/14 09:44:47;;;;;;;27.53;20.40;;;;;;;;;;5055441;28;20219;-73
2022/04/14 09:47:23;;;;;;;25.20;19.83;;;;;;;;;;5055856;28;20219;-73
2022/04/14 09:49:53;;;;;;;24.13;19.80;;;;;;;;;;5055207;28;20252;-73
2022/04/14 09:52:21;;;;;;;23.93;19.73;;;;;;;;;;5054809;28;20195;-73
2022/04/14 09:54:50;;;;;;;24.83;20.27;;;;;;;;;;5052338;28;20196;-73
2022/04/14 09:57:19;;;;;;;23.53;20.20;;;;;;;;;;5037419;28;20227;-73
2022/04/14 09:59:47;;;;;;;25.87;20.77;;;;;;;;;;5042419;28;20211;-74
2022/04/14 10:02:16;;;;;;;24.40;20.30;;;;;;;;;;5050562;28;20195;-73
2022/04/14 10:04:46;;;;;;;26.77;21.20;;;;;;;;;;5047816;28;20625;-72
2022/04/14 10:07:16;;;;;;;22.97;20.47;;;;;;;;;;5053118;28;20227;-73
2022/04/14 10:09:45;;;;;;;26.83;19.13;;;;;;;;;;5049951;28;20607;-73
2022/04/14 10:12:31;;;;;;;21.17;18.10;;;;;;;;;;5050731;28;20206;-74
2022/04/14 10:15:03;;;;;;;24.98;19.30;;;;;;;;;;5054459;28;20196;-73
2022/04/14 10:17:32;;;;;;;22.40;19.23;;;;;;;;;;5052736;28;20919;-73
2022/04/14 10:20:01;;;;;;;25.38;18.45;;;;;;;;;;5054278;28;20211;-73
2022/04/14 10:22:31;;;;;;;19.05;16.20;;;;;;;;;;5053199;28;20199;-73
2022/04/14 10:25:01;;;;;;;16.25;13.82;;;;;;;;;;5043610;28;20215;-73
2022/04/14 10:27:29;;;;;;;18.63;16.02;;;;;;;;;;5047201;28;20219;-73
2022/04/14 10:29:59;;;;;;;21.42;17.08;;;;;;;;;;5044422;28;20576;-73
2022/04/14 10:32:27;;;;;;;16.88;15.07;;;;;;;;;;5052496;28;20203;-72
2022/04/14 10:34:57;;;;;;;15.32;13.70;;;;;;;;;;5053936;28;20244;-73
2022/04/14 10:37:27;;;;;;;14.48;12.45;;;;;;;;;;5053789;28;20227;-71
2022/04/14 10:39:58;;;;;;;14.90;12.88;;;;;;;;;;5053045;28;20732;-73
2022/04/14 10:42:29;;;;;;;20.75;12.77;;;;;;;;;;5053218;28;20207;-74
2022/04/14 10:44:58;;;;;;;15.00;12.63;;;;;;;;;;5053862;28;20582;-74
2022/04/14 10:47:36;;;;;;;17.33;12.80;;;;;;;;;;5052387;28;20233;-72
2022/04/14 10:50:06;;;;;;;17.02;13.10;;;;;;;;;;5047756;28;20210;-73
2022/04/14 10:53:01;;;;;;;15.60;13.07;;;;;;;;;;5054272;28;20662;-73
2022/04/14 10:55:39;;;;;;;15.20;13.32;;;;;;;;;;5034774;28;20188;-74
2022/04/14 10:58:08;;;;;;;17.58;12.63;;;;;;;;;;5051774;28;20223;-72
2022/04/14 11:00:37;;;;;;;17.55;12.63;;;;;;;;;;5034505;28;20807;-73
2022/04/14 11:03:12;;;;;;;16.45;14.27;;;;;;;;;;5046510;28;20206;-73
2022/04/14 11:05:48;;;;;;;16.45;14.57;;;;;;;;;;5044816;28;20274;-75
2022/04/14 11:08:27;;;;;;;15.65;12.98;;;;;;;;;;5044419;28;20223;-73
2022/04/14 11:11:08;;;;;;;17.05;11.80;;;;;;;;;;5052168;28;20268;-72
2022/04/14 11:13:56;;;;;;;13.05;10.93;;;;;;;;;;5046979;28;20195;-72
2022/04/14 11:16:39;;;;;;;14.43;11.38;;;;;;;;;;5045236;28;20198;-73
2022/04/14 11:19:31;;;;;;;15.95;11.05;;;;;;;;;;5053480;28;20195;-73
2022/04/14 11:22:04;;;;;;;15.70;10.95;;;;;;;;;;5029969;28;20261;-73
2022/04/14 11:24:40;;;;;;;11.68;10.48;;;;;;;;;;5051904;28;20234;-73
2022/04/14 11:27:17;;;;;;;13.55;10.38;;;;;;;;;;5052758;28;20238;-72
2022/04/14 11:29:47;;;;;;;13.90;10.30;;;;;;;;;;5046077;28;20211;-73
2022/04/14 11:32:17;;;;;;;13.13;10.68;;;;;;;;;;5051909;28;20199;-72
2022/04/14 11:35:23;;;;;;;13.40;9.60;;;;;;;;;;5053576;28;20210;-73
2022/04/14 11:37:52;;;;;;;16.40;11.10;;;;;;;;;;5053946;28;20222;-73
2022/04/14 11:40:22;;;;;;;14.88;11.52;;;;;;;;;;5039946;28;20706;-73
2022/04/14 11:42:52;;;;;;;12.02;9.85;;;;;;;;;;5053067;28;20539;-72
2022/04/14 11:45:24;;;;;;;13.60;10.30;;;;;;;;;;5052816;28;20246;-74
2022/04/14 11:47:59;;;;;;;13.55;11.27;;;;;;;;;;5056404;28;20563;-73
2022/04/14 11:50:29;;;;;;;14.20;11.40;;;;;;;;;;5046914;28;20282;-72
2022/04/14 11:52:57;;;;;;;14.27;11.30;;;;;;;;;;5053843;28;20210;-73
2022/04/14 11:55:36;;;;;;;17.63;11.38;;;;;;;;;;5052150;28;20202;-73
2022/04/14 11:58:10;;;;;;;12.48;10.93;;;;;;;;;;5038892;28;20227;-74
2022/04/14 12:00:45;;;;;;;15.02;11.15;;;;;;;;;;5042279;28;20265;-73
2022/04/14 12:03:13;;;;;;;12.88;11.40;;;;;;;;;;5052515;28;20665;-73
2022/04/14 12:05:50;;;;;;;13.88;11.82;;;;;;;;;;5052476;28;20334;-73
2022/04/14 12:08:19;;;;;;;15.15;11.25;;;;;;;;;;5052419;28;20631;-73
2022/04/14 12:10:47;;;;;;;16.67;12.18;;;;;;;;;;5052864;28;20199;-73
2022/04/14 12:13:17;;;;;;;15.88;12.15;;;;;;;;;;5047847;28;20203;-74
2022/04/14 12:16:00;;;;;;;14.98;11.50;;;;;;;;;;5052261;28;20191;-73
2022/04/14 12:18:29;;;;;;;15.88;11.80;;;;;;;;;;5052027;28;20219;-72
2022/04/14 12:20:58;;;;;;;15.80;13.38;;;;;;;;;;5052775;28;20598;-73
2022/04/14 12:23:26;;;;;;;16.60;12.40;;;;;;;;;;5049595;28;20225;-75
2022/04/14 12:25:56;;;;;;;17.52;13.88;;;;;;;;;;5050849;28;20234;-73
2022/04/14 12:28:26;;;;;;;17.85;14.02;;;;;;;;;;5044616;28;20226;-73
2022/04/14 12:30:55;;;;;;;18.70;15.18;;;;;;;;;;5045559;28;20207;-73
2022/04/14 12:33:27;;;;;;;20.88;14.15;;;;;;;;;;5051579;28;20658;-73
2022/04/14 12:36:06;;;;;;;20.02;15.38;;;;;;;;;;5043724;28;20203;-73
2022/04/14 12:38:45;;;;;;;18.30;15.50;;;;;;;;;;5049341;28;20227;-73
2022/04/14 12:41:17;;;;;;;22.83;17.38;;;;;;;;;;5051033;28;20210;-72
2022/04/14 12:43:49;;;;;;;20.20;16.53;;;;;;;;;;5052300;28;20538;-74
2022/04/14 12:46:21;;;;;;;21.30;17.13;;;;;;;;;;5049738;28;20241;-73
2022/04/14 12:49:00;;;;;;;24.23;17.98;;;;;;;;;;5051096;28;20245;-73
2022/04/14 12:51:56;;;;;;;23.23;17.70;;;;;;;;;;5052311;28;20203;-73
2022/04/14 12:54:25;;;;;;;21.97;17.23;;;;;;;;;;5047917;28;20847;-72
2022/04/14 12:56:59;;;;;;;22.83;18.83;;;;;;;;;;5053327;28;20211;-73
2022/04/14 12:59:30;;;;;;;21.50;18.30;;;;;;;;;;5047217;28;20952;-73
2022/04/14 13:02:00;;;;;;;26.75;19.38;;;;;;;;;;5042033;28;20191;-73
2022/04/14 13:04:32;;;;;;;25.67;19.63;;;;;;;;;;5050782;28;20199;-73
2022/04/14 13:07:02;;;;;;;23.13;18.27;;;;;;;;;;5046811;28;20234;-72
2022/04/14 13:09:31;;;;;;;23.35;18.02;;;;;;;;;;5055305;28;20205;-72
2022/04/14 13:11:59;;;;;;;24.20;18.50;;;;;;;;;;5055742;28;20199;-72
2022/04/14 13:14:30;;;;;;;22.15;17.38;;;;;;;;;;5051128;28;20273;-73
2022/04/14 13:17:19;;;;;;;21.00;17.63;;;;;;;;;;5048611;28;20265;-74
2022/04/14 13:19:54;;;;;;;19.35;16.58;;;;;;;;;;5050390;28;20206;-73
2022/04/14 13:22:24;;;;;;;22.05;16.13;;;;;;;;;;5049873;28;20686;-73
2022/04/14 13:24:52;;;;;;;20.75;17.10;;;;;;;;;;5052429;28;20198;-74
2022/04/14 13:27:21;;;;;;;17.98;16.05;;;;;;;;;;5053677;28;20239;-72
2022/04/14 13:29:51;;;;;;;19.05;16.27;;;;;;;;;;5055425;28;20245;-74
2022/04/14 13:32:19;;;;;;;20.35;16.60;;;;;;;;;;5053849;28;20210;-73
2022/04/14 13:34:48;;;;;;;19.05;15.15;;;;;;;;;;5053102;28;20221;-73
2022/04/14 13:37:17;;;;;;;17.00;13.75;;;;;;;;;;5051255;28;20219;-73
2022/04/14 13:39:45;;;;;;;14.35;12.50;;;;;;;;;;5055314;28;20238;-72
2022/04/14 13:42:14;;;;;;;16.42;13.23;;;;;;;;;;5055837;28;20203;-73
2022/04/14 13:44:44;;;;;;;18.20;13.55;;;;;;;;;;5055231;28;20207;-72
2022/04/14 13:47:14;;;;;;;14.25;12.10;;;;;;;;;;5055395;28;20223;-72
2022/04/14 13:49:43;;;;;;;13.38;10.82;;;;;;;;;;5055855;28;20199;-73
2022/04/14 13:52:12;;;;;;;12.07;10.52;;;;;;;;;;5055660;28;20191;-73
2022/04/14 13:54:40;;;;;;;14.27;11.30;;;;;;;;;;5055854;28;20203;-73
2022/04/14 13:57:09;;;;;;;14.10;11.33;;;;;;;;;;5050881;28;20223;-73
2022/04/14 13:59:37;;;;;;;14.67;11.20;;;;;;;;;;5051744;28;20654;-73
2022/04/14 14:02:06;;;;;;;12.67;10.87;;;;;;;;;;5052630;28;20249;-73
2022/04/14 14:04:36;;;;;;;13.30;11.60;;;;;;;;;;5053517;28;20195;-73
2022/04/14 14:07:05;;;;;;;16.90;12.60;;;;;;;;;;5053894;28;20245;-72
2022/04/14 14:09:34;;;;;;;14.65;12.07;;;;;;;;;;5050007;28;20218;-72
2022/04/14 14:12:02;;;;;;;14.60;12.85;;;;;;;;;;5053128;28;20203;-72
2022/04/14 14:14:31;;;;;;;15.77;13.32;;;;;;;;;;5048379;28;20600;-74
2022/04/14 14:17:04;;;;;;;17.38;12.93;;;;;;;;;;5052456;28;20223;-73
2022/04/14 14:19:32;;;;;;;17.13;12.93;;;;;;;;;;5045491;28;20194;-72
2022/04/14 14:22:03;;;;;;;17.20;13.30;;;;;;;;;;5049941;28;20261;-73
2022/04/14 14:24:31;;;;;;;17.02;13.55;;;;;;;;;;5060925;28;20207;-72
2022/04/14 14:27:00;;;;;;;16.73;12.70;;;;;;;;;;5046966;28;20223;-75
2022/04/14 14:29:28;;;;;;;13.35;11.95;;;;;;;;;;5046841;28;20213;-73
2022/04/14 14:31:57;;;;;;;15.57;12.68;;;;;;;;;;5054160;28;20207;-72
2022/04/14 14:34:25;;;;;;;14.05;12.02;;;;;;;;;;5054622;28;20222;-73
2022/04/14 14:36:54;;;;;;;14.02;11.23;;;;;;;;;;5054783;28;20223;-73
2022/04/14 14:39:26;;;;;;;12.57;11.27;;;;;;;;;;5049337;28;20214;-73
2022/04/14 14:41:55;;;;;;;13.02;11.43;;;;;;;;;;5049166;28;20204;-73
2022/04/14 14:44:23;;;;;;;14.27;11.50;;;;;;;;;;5054087;28;20203;-73
2022/04/14 14:46:54;;;;;;;13.63;11.55;;;;;;;;;;5051770;28;20250;-73